»·PEaware :: UAL353 KSFO-KSAN

UAL353 :: KSFO-KSAN

FLIGHT INFORMATION

Flight Status: Arrived
Operator:
United Airlines
More flights by this operator :: More flights under this callsign
Pilot: Justin Z. (25672)
Aircraft: BOEING 767-300
(B763)
More flights by this aircraft type
Origin: KSFO San Francisco Intl
United States
Destination: KSAN San Diego Intl-Lindbergh
United States
More flights between these airports :: More routes between these airports
Route: +SSTIK4 EBAYE FLW LAX COMIX2
File this flight plan on PilotEdge
Remarks:
Altitude:
(Current/Filed)
37,000ft
Speed:
(Current/Filed)
470kts
Departed: 24-Mar-20 09:20 AM
Arrived: 24-Mar-20 10:31 AM
Distance/Time
Traveled:
387nm/1:11
Distance/Time
To Go:
Arrived

Flight Plot

Page will automatically refresh every two minutes.

Flight plan parsing failed; only flown route is shown


Map Options




Map Legend


Flown Route
Filed Route
Departure Airport
Arrival Airport
Navaid (VOR, NDB)
Fix

Horizontal Profiles

Position Reports

Time Latitude Longitude Heading Altitude Ground
Speed
24-Mar-20 08:52 37.616675 -122.380367 298 34ft 0kts
24-Mar-20 08:53 37.616675 -122.380367 298 34ft 0kts
24-Mar-20 08:55 37.616675 -122.380367 298 34ft 0kts
24-Mar-20 08:55 37.616675 -122.380367 298 34ft 0kts
24-Mar-20 08:56 37.616675 -122.380367 298 34ft 0kts
24-Mar-20 08:57 37.616675 -122.380367 298 34ft 0kts
24-Mar-20 08:58 37.616675 -122.380367 298 34ft 0kts
24-Mar-20 08:59 37.616675 -122.380367 298 34ft 0kts
24-Mar-20 09:00 37.616675 -122.380367 298 34ft 0kts
24-Mar-20 09:01 37.616675 -122.380367 298 34ft 0kts
24-Mar-20 09:02 37.616675 -122.380367 298 34ft 0kts
24-Mar-20 09:03 37.616675 -122.380367 298 34ft 0kts
24-Mar-20 09:04 37.616675 -122.380367 298 34ft 0kts
24-Mar-20 09:05 37.616675 -122.380367 298 34ft 0kts
24-Mar-20 09:06 37.616675 -122.380367 298 34ft 0kts
24-Mar-20 09:07 37.616675 -122.380367 298 34ft 0kts
24-Mar-20 09:08 37.616676 -122.380367 298 34ft 0kts
24-Mar-20 09:09 37.616676 -122.380367 298 34ft 0kts
24-Mar-20 09:10 37.616676 -122.380367 298 34ft 0kts
24-Mar-20 09:11 37.616676 -122.380367 298 34ft 0kts
24-Mar-20 09:12 37.616676 -122.380367 298 34ft 0kts
24-Mar-20 09:13 37.616653 -122.380291 264 34ft 0kts
24-Mar-20 09:14 37.616653 -122.380291 264 34ft 0kts
24-Mar-20 09:15 37.615486 -122.380963 168 34ft 21kts
24-Mar-20 09:16 37.609514 -122.383702 121 34ft 14kts
24-Mar-20 09:17 37.609384 -122.383434 120 34ft 0kts
24-Mar-20 09:18 37.609384 -122.383434 120 34ft 0kts
24-Mar-20 09:19 37.611007 -122.380888 27 33ft 63kts
24-Mar-20 09:20 37.660238 -122.363437 5 793ft 256kts
24-Mar-20 09:21 37.706660 -122.400577 262 2378ft 244kts
24-Mar-20 09:22 37.656869 -122.440134 190 5907ft 243kts
24-Mar-20 09:23 37.589935 -122.454041 191 9335ft 253kts
24-Mar-20 09:24 37.519826 -122.468414 192 10095ft 252kts
24-Mar-20 09:25 37.452081 -122.427868 132 11561ft 343kts
24-Mar-20 09:26 37.391953 -122.341640 138 14646ft 359kts
24-Mar-20 09:27 37.322055 -122.246575 140 17670ft 378kts
24-Mar-20 09:28 37.252365 -122.152306 141 20297ft 396kts
24-Mar-20 09:29 37.177827 -122.051788 142 22762ft 415kts
24-Mar-20 09:30 37.098325 -121.944932 143 25070ft 434kts
24-Mar-20 09:31 37.017477 -121.836598 144 27088ft 454kts
24-Mar-20 09:32 36.932574 -121.723246 145 28969ft 474kts
24-Mar-20 09:33 36.846174 -121.608271 146 30889ft 488kts
24-Mar-20 09:34 36.753710 -121.485631 147 33046ft 492kts
24-Mar-20 09:35 36.664554 -121.367859 148 35087ft 487kts
24-Mar-20 09:36 36.579527 -121.255975 148 36521ft 485kts
24-Mar-20 09:37 36.484516 -121.131398 149 37246ft 484kts
24-Mar-20 09:38 36.396172 -121.011309 145 37250ft 495kts
24-Mar-20 09:39 36.308941 -120.885822 146 37238ft 494kts
24-Mar-20 09:40 36.221129 -120.760132 146 37240ft 491kts
24-Mar-20 09:41 36.133005 -120.634545 146 37244ft 493kts
24-Mar-20 09:42 36.044858 -120.509341 146 37244ft 493kts
24-Mar-20 09:43 35.957214 -120.385282 146 37249ft 490kts
24-Mar-20 09:44 35.875916 -120.277244 158 37240ft 465kts
24-Mar-20 09:45 35.781040 -120.216187 174 37238ft 428kts
24-Mar-20 09:46 35.674932 -120.161125 175 37231ft 427kts
24-Mar-20 09:47 35.576252 -120.110640 175 37233ft 426kts
24-Mar-20 09:48 35.469395 -120.056171 175 37241ft 426kts
24-Mar-20 09:49 35.359827 -120.000494 175 37263ft 427kts
24-Mar-20 09:50 35.243471 -119.941535 174 37263ft 428kts
24-Mar-20 09:51 35.132294 -119.885347 174 37260ft 427kts
24-Mar-20 09:52 35.034453 -119.792309 149 37256ft 484kts
24-Mar-20 09:53 34.953399 -119.689719 149 37251ft 480kts
24-Mar-20 09:54 34.872692 -119.588463 149 37261ft 476kts
24-Mar-20 09:55 34.791501 -119.486971 149 37254ft 476kts
24-Mar-20 09:56 34.703146 -119.376855 149 37256ft 476kts
24-Mar-20 09:57 34.628271 -119.283788 150 37232ft 474kts
24-Mar-20 09:58 34.545289 -119.180997 150 37233ft 475kts
24-Mar-20 09:59 34.470960 -119.089168 150 37234ft 475kts
24-Mar-20 10:00 34.387624 -118.986519 150 37236ft 476kts
24-Mar-20 10:01 34.300615 -118.879664 150 37238ft 479kts
24-Mar-20 10:02 34.209725 -118.768393 149 37242ft 481kts
24-Mar-20 10:03 34.118834 -118.657473 150 37253ft 481kts
24-Mar-20 10:04 34.032551 -118.552219 151 36175ft 458kts
24-Mar-20 10:05 33.950178 -118.452710 149 32131ft 464kts
24-Mar-20 10:06 33.877103 -118.359485 145 29362ft 468kts
24-Mar-20 10:07 33.798172 -118.257248 144 27553ft 452kts
24-Mar-20 10:08 33.718060 -118.152447 143 25532ft 440kts
24-Mar-20 10:09 33.639304 -118.049167 142 23710ft 424kts
24-Mar-20 10:10 33.564244 -117.951013 141 21952ft 409kts
24-Mar-20 10:11 33.485780 -117.857980 144 20209ft 392kts
24-Mar-20 10:12 33.399738 -117.761946 145 18361ft 378kts
24-Mar-20 10:13 33.311368 -117.667624 143 16487ft 366kts
24-Mar-20 10:14 33.214966 -117.565341 142 14454ft 352kts
24-Mar-20 10:15 33.127771 -117.475361 147 12615ft 336kts
24-Mar-20 10:16 33.051431 -117.412101 147 11154ft 331kts
24-Mar-20 10:17 32.978788 -117.351118 147 10352ft 291kts
24-Mar-20 10:18 32.913131 -117.296213 147 9778ft 280kts
24-Mar-20 10:19 32.851147 -117.244700 147 8499ft 271kts
24-Mar-20 10:20 32.805490 -117.181349 104 7393ft 270kts
24-Mar-20 10:21 32.786067 -117.096473 103 6419ft 257kts
24-Mar-20 10:22 32.762541 -117.020606 115 5252ft 238kts
24-Mar-20 10:23 32.740142 -116.949881 106 4432ft 217kts
24-Mar-20 10:24 32.703363 -116.917051 214 4268ft 193kts
24-Mar-20 10:25 32.683577 -116.972696 279 4248ft 182kts
24-Mar-20 10:26 32.696313 -117.030520 286 3832ft 177kts
24-Mar-20 10:27 32.708903 -117.088257 283 2406ft 184kts
24-Mar-20 10:28 32.721671 -117.138882 288 785ft 147kts
24-Mar-20 10:29 32.731621 -117.181831 286 55ft 133kts
24-Mar-20 10:30 32.735564 -117.202121 206 21ft 0kts
24-Mar-20 10:31 32.733801 -117.203210 261 21ft 7kts
24-Mar-20 10:32 32.733782 -117.203395 264 21ft 0kts
24-Mar-20 10:33 32.733782 -117.203395 264 21ft 0kts
24-Mar-20 10:34 32.733782 -117.203395 264 21ft 0kts

Navigation Log

Ident Type
Flight plan parsing failed, navigation log unavailable